Time;durP1;ratioP1;P1;durP2;ratioP2;P2;SDS_P1;SDS_P2;PMS_P1;PMS_P2;Temp;Humidity;BMP_temperature;BMP_pressure;BME280_temperature;BME280_humidity;BME280_pressure;Samples;Min_cycle;Max_cycle;Signal;HPM_P1;HPM_P2
2022/06/04 00:00:12;;;;;;;364.67;55.55;;;;;;;8.82;100.00;101631.06;5026356;28;20048;-79
2022/06/04 00:02:39;;;;;;;9.43;5.68;;;;;;;8.87;100.00;101634.16;5007882;28;20112;-79
2022/06/04 00:05:06;;;;;;;10.20;6.15;;;;;;;8.86;100.00;101627.09;5026361;28;20499;-80
2022/06/04 00:07:31;;;;;;;11.02;6.38;;;;;;;9.02;100.00;101626.50;5009924;28;20025;-79
2022/06/04 00:15:29;;;;;;;9.73;5.47;;;;;;;9.33;100.00;101629.81;5017769;28;20033;-80
2022/06/04 00:17:56;;;;;;;11.13;6.50;;;;;;;9.46;100.00;101618.75;5006886;28;20045;-80
2022/06/04 00:20:22;;;;;;;10.50;7.00;;;;;;;9.46;100.00;101618.75;5023617;28;20037;-80
2022/06/04 00:22:48;;;;;;;8.45;5.40;;;;;;;9.57;100.00;101615.03;5026919;28;20041;-79
2022/06/04 00:25:15;;;;;;;6.90;4.85;;;;;;;9.60;100.00;101606.66;5021302;28;20351;-80
2022/06/04 00:27:41;;;;;;;7.03;4.40;;;;;;;9.71;100.00;101627.94;5020574;28;20051;-80
2022/06/04 00:30:08;;;;;;;7.75;5.45;;;;;;;9.77;100.00;101622.00;5049426;28;20040;-79
2022/06/04 00:32:34;;;;;;;11.20;7.57;;;;;;;9.66;100.00;101628.41;5029208;28;20052;-79
2022/06/04 00:35:06;;;;;;;12.07;7.78;;;;;;;9.67;100.00;101616.69;5022308;28;20037;-79
2022/06/04 00:37:33;;;;;;;8.05;4.45;;;;;;;9.65;100.00;101621.34;5036009;28;20509;-80
2022/06/04 00:40:00;;;;;;;9.65;6.45;;;;;;;9.56;100.00;101619.56;5008928;28;20197;-79
2022/06/04 00:42:26;;;;;;;11.20;7.60;;;;;;;9.45;100.00;101612.53;5005679;28;20468;-80
2022/06/04 00:45:14;;;;;;;10.65;8.68;;;;;;;9.31;100.00;101623.75;5009357;28;20041;-79
2022/06/04 00:47:44;;;;;;;11.20;7.25;;;;;;;9.06;100.00;101611.81;5045293;28;20078;-80
2022/06/04 00:50:19;;;;;;;9.65;7.28;;;;;;;8.77;100.00;101602.00;4993090;28;20045;-80
2022/06/04 00:52:46;;;;;;;11.10;6.78;;;;;;;8.80;100.00;101623.16;4994517;28;20045;-79
2022/06/04 00:55:16;;;;;;;13.45;7.53;;;;;;;8.78;100.00;101618.91;5007267;28;20044;-80
2022/06/04 00:57:56;;;;;;;10.48;6.05;;;;;;;8.85;100.00;101619.22;4981240;28;20494;-81
2022/06/04 01:00:40;;;;;;;12.98;8.43;;;;;;;8.88;100.00;101611.72;5008092;28;20046;-80
2022/06/04 01:03:44;;;;;;;12.32;7.22;;;;;;;8.89;100.00;101615.22;5026280;28;20084;-80
2022/06/04 01:06:41;;;;;;;14.13;8.60;;;;;;;8.82;100.00;101616.81;5010361;28;20446;-80
2022/06/04 01:09:29;;;;;;;11.35;7.13;;;;;;;8.82;100.00;101616.81;4998120;28;20143;-81
2022/06/04 01:12:09;;;;;;;14.70;8.55;;;;;;;8.79;100.00;101612.59;5028738;28;20025;-80
2022/06/04 01:14:43;;;;;;;9.15;5.28;;;;;;;8.69;100.00;101604.53;5018045;28;20479;-80
2022/06/04 01:17:16;;;;;;;;;;;;;;;8.74;100.00;101621.03;5004262;28;20037;-80
2022/06/04 01:19:47;;;;;;;11.15;7.55;;;;;;;8.64;100.00;101614.00;5038301;28;19932;-80
2022/06/04 01:22:37;;;;;;;12.85;8.25;;;;;;;8.38;100.00;101583.22;5019627;28;20028;-81
2022/06/04 01:25:15;;;;;;;15.80;7.82;;;;;;;8.51;100.00;101606.25;5025912;28;20561;-79
2022/06/04 01:27:45;;;;;;;15.07;8.35;;;;;;;8.43;100.00;101603.44;5018827;28;20037;-80
2022/06/04 01:30:28;;;;;;;12.00;6.82;;;;;;;8.49;100.00;101602.84;5018262;28;20032;-80
2022/06/04 01:33:25;;;;;;;14.18;8.57;;;;;;;8.75;100.00;101603.13;5010512;28;20049;-79
2022/06/04 01:36:10;;;;;;;12.00;6.97;;;;;;;8.98;100.00;101606.34;5023115;28;20033;-79
2022/06/04 01:39:03;;;;;;;13.20;7.80;;;;;;;9.06;100.00;101597.56;5003973;28;20076;-80
2022/06/04 01:41:39;;;;;;;16.77;8.05;;;;;;;9.06;100.00;101594.88;5027501;28;20357;-80
2022/06/04 01:44:33;;;;;;;11.48;7.63;;;;;;;9.03;100.00;101601.38;5042870;28;20065;-80
2022/06/04 01:47:06;;;;;;;15.30;7.95;;;;;;;9.27;100.00;101597.38;5024470;28;20058;-80
2022/06/04 01:50:14;;;;;;;11.40;5.25;;;;;;;9.13;100.00;101591.47;5021763;28;20044;-81
2022/06/04 01:52:41;;;;;;;12.07;6.47;;;;;;;9.00;100.00;101589.09;5052478;28;20541;-81
2022/06/04 01:55:36;;;;;;;16.58;8.35;;;;;;;8.96;100.00;101590.38;5016371;28;20049;-80
2022/06/04 01:58:13;;;;;;;12.80;7.20;;;;;;;8.89;100.00;101577.69;4999871;28;20048;-80
2022/06/04 02:01:08;;;;;;;17.33;7.45;;;;;;;8.80;100.00;101572.19;4987468;28;20033;-80
2022/06/04 02:03:37;;;;;;;8.88;5.78;;;;;;;8.67;100.00;101552.88;5014644;28;20047;-80
2022/06/04 02:06:14;;;;;;;17.38;9.13;;;;;;;9.02;100.00;101579.09;5025462;28;20120;-79
2022/06/04 02:09:13;;;;;;;12.10;7.70;;;;;;;9.07;100.00;101575.09;5017446;28;20476;-80
2022/06/04 02:11:44;;;;;;;;;;;;;;;9.14;100.00;101574.38;5012981;28;20424;-80
2022/06/04 02:14:16;;;;;;;12.77;7.95;;;;;;;9.17;100.00;101566.03;5055616;28;19987;-80
2022/06/04 02:16:43;;;;;;;13.65;6.82;;;;;;;9.23;100.00;101569.94;5008448;28;20033;-79
2022/06/04 02:19:09;;;;;;;13.57;7.95;;;;;;;9.25;100.00;101568.81;4989714;28;20116;-80
2022/06/04 02:21:35;;;;;;;17.27;8.55;;;;;;;9.37;100.00;101577.53;5028247;28;20109;-79
2022/06/04 02:24:00;;;;;;;10.45;7.20;;;;;;;9.35;100.00;101559.91;5024825;28;20038;-81
2022/06/04 02:26:27;;;;;;;13.18;6.80;;;;;;;9.40;100.00;101577.25;5027410;28;20029;-80
2022/06/04 02:28:53;;;;;;;11.43;7.18;;;;;;;9.38;100.00;101578.38;5010486;28;20041;-79
2022/06/04 02:31:28;;;;;;;17.25;5.70;;;;;;;9.42;100.00;101586.00;5023655;28;20476;-79
2022/06/04 02:33:53;;;;;;;14.45;8.45;;;;;;;9.44;100.00;101588.53;5010505;28;20087;-80
2022/06/04 02:36:34;;;;;;;10.20;7.07;;;;;;;9.54;100.00;101593.84;5011728;28;20038;-80
2022/06/04 02:39:05;;;;;;;13.00;8.32;;;;;;;9.45;100.00;101600.97;5023821;28;20029;-80
2022/06/04 02:41:34;;;;;;;13.45;8.15;;;;;;;9.27;100.00;101576.72;5011894;28;20056;-79
2022/06/04 02:44:27;;;;;;;15.48;8.32;;;;;;;9.34;100.00;101602.00;4992059;28;20398;-81
2022/06/04 02:47:05;;;;;;;13.93;8.65;;;;;;;9.38;100.00;101606.06;5005739;28;20025;-80
2022/06/04 02:49:39;;;;;;;11.73;7.30;;;;;;;9.30;100.00;101592.53;4988490;28;20479;-79
2022/06/04 02:52:10;;;;;;;17.65;8.85;;;;;;;9.42;100.00;101601.22;4989267;28;20217;-79
2022/06/04 02:54:46;;;;;;;12.45;6.68;;;;;;;9.32;100.00;101577.13;5009354;28;20104;-80
2022/06/04 02:57:15;;;;;;;12.85;6.82;;;;;;;9.45;100.00;101592.91;4988259;28;20475;-79
2022/06/04 02:59:43;;;;;;;22.02;8.27;;;;;;;9.42;100.00;101552.91;4991350;28;20042;-80
2022/06/04 03:02:15;;;;;;;8.73;5.40;;;;;;;9.63;100.00;101577.72;5008019;28;20029;-79
2022/06/04 03:04:47;;;;;;;9.50;6.05;;;;;;;9.69;100.00;101579.78;5026933;28;20115;-80
2022/06/04 03:07:20;;;;;;;12.65;7.78;;;;;;;9.76;100.00;101577.31;5024919;28;20116;-79
2022/06/04 03:09:48;;;;;;;12.25;6.72;;;;;;;9.80;100.00;101583.25;5024703;28;20040;-79
2022/06/04 03:12:13;;;;;;;9.07;4.70;;;;;;;9.68;100.00;101572.72;5022785;28;20037;-79
2022/06/04 03:14:39;;;;;;;14.63;8.45;;;;;;;9.57;100.00;101593.56;5029753;28;20036;-80
2022/06/04 03:17:09;;;;;;;10.20;5.97;;;;;;;9.52;100.00;101595.84;5020569;28;20029;-81
2022/06/04 03:19:35;;;;;;;12.10;7.47;;;;;;;9.26;100.00;101580.38;5022444;28;20037;-79
2022/06/04 03:22:01;;;;;;;16.08;9.20;;;;;;;8.93;100.00;101563.00;5022829;28;20035;-80
2022/06/04 03:24:27;;;;;;;16.75;8.32;;;;;;;8.94;100.00;101586.16;5029168;28;20045;-79
2022/06/04 03:26:53;;;;;;;6.30;4.82;;;;;;;8.88;100.00;101590.25;5023831;28;20136;-80
2022/06/04 03:29:19;;;;;;;12.23;6.13;;;;;;;8.88;100.00;101586.72;5024201;28;20037;-80
2022/06/04 03:31:44;;;;;;;15.07;7.07;;;;;;;8.78;100.00;101582.22;5019322;28;20102;-80
2022/06/04 03:34:11;;;;;;;17.33;8.50;;;;;;;8.64;100.00;101573.78;5007902;28;20495;-80
2022/06/04 03:36:37;;;;;;;13.65;7.95;;;;;;;8.56;100.00;101579.88;4992884;28;20033;-80
2022/06/04 03:39:04;;;;;;;18.83;9.35;;;;;;;8.41;100.00;101576.75;5026111;28;20083;-80
2022/06/04 03:41:30;;;;;;;13.32;7.97;;;;;;;8.29;100.00;101594.78;5025204;28;20430;-80
2022/06/04 03:43:55;;;;;;;15.73;7.55;;;;;;;8.22;100.00;101595.50;5025370;28;20029;-81
2022/06/04 03:46:24;;;;;;;15.93;7.80;;;;;;;8.03;100.00;101585.59;5004154;28;20041;-80
2022/06/04 03:48:51;;;;;;;13.65;7.70;;;;;;;8.04;100.00;101593.47;5019786;28;20475;-81
2022/06/04 03:51:17;;;;;;;15.90;7.72;;;;;;;7.88;100.00;101571.75;5027058;28;20120;-80
2022/06/04 03:53:42;;;;;;;14.27;8.13;;;;;;;7.95;100.00;101585.44;5024643;28;20133;-79
2022/06/04 03:56:08;;;;;;;19.25;7.72;;;;;;;7.95;100.00;101590.81;5021906;28;20033;-80
2022/06/04 03:58:35;;;;;;;14.45;6.93;;;;;;;7.95;100.00;101583.63;4989559;28;20049;-80
2022/06/04 04:01:15;;;;;;;18.00;8.02;;;;;;;8.04;100.00;101588.13;4988268;28;20044;-80
2022/06/04 04:03:41;;;;;;;10.70;6.72;;;;;;;8.29;100.00;101593.94;5008744;28;20109;-80
2022/06/04 04:06:11;;;;;;;20.33;9.30;;;;;;;8.48;100.00;101590.44;5022148;28;20391;-80
2022/06/04 04:08:37;;;;;;;15.43;8.10;;;;;;;8.63;100.00;101591.72;5020705;28;20566;-80
2022/06/04 04:11:05;;;;;;;15.23;8.50;;;;;;;8.86;100.00;101597.59;5023370;28;21000;-79
2022/06/04 04:13:31;;;;;;;10.50;5.35;;;;;;;9.14;100.00;101603.03;5026050;28;20033;-80
2022/06/04 04:15:56;;;;;;;12.10;7.80;;;;;;;9.29;100.00;101606.09;5026347;28;20042;-79
2022/06/04 04:18:22;;;;;;;18.42;8.30;;;;;;;9.32;100.00;101612.03;5022695;28;20096;-79
2022/06/04 04:20:48;;;;;;;15.70;8.32;;;;;;;9.27;100.00;101602.72;5022957;28;20476;-80
2022/06/04 04:23:14;;;;;;;17.30;8.35;;;;;;;9.22;100.00;101601.31;5020819;28;20036;-80
2022/06/04 04:25:40;;;;;;;15.38;8.45;;;;;;;9.21;100.00;101610.38;5025508;28;20060;-79
2022/06/04 04:28:06;;;;;;;8.77;4.72;;;;;;;9.25;100.00;101605.53;5024932;28;20034;-80
2022/06/04 04:30:34;;;;;;;23.73;8.95;;;;;;;9.25;100.00;101611.75;5026497;28;20036;-80
2022/06/04 04:33:00;;;;;;;15.13;7.57;;;;;;;9.35;100.00;101618.94;5024618;28;20037;-81
2022/06/04 04:35:29;;;;;;;12.35;6.00;;;;;;;9.45;100.00;101617.06;4992020;28;20145;-81
2022/06/04 04:37:55;;;;;;;10.18;6.03;;;;;;;9.41;100.00;101589.66;4992927;28;20045;-79
2022/06/04 04:40:23;;;;;;;10.52;5.93;;;;;;;9.60;100.00;101615.56;5005417;28;20037;-81
2022/06/04 04:42:55;;;;;;;15.45;8.57;;;;;;;9.68;100.00;101620.19;5015468;28;20037;-80
2022/06/04 04:45:26;;;;;;;17.00;7.45;;;;;;;9.73;100.00;101611.69;5008708;28;20037;-81
2022/06/04 04:47:52;;;;;;;11.05;6.97;;;;;;;9.69;100.00;101603.13;5019113;28;20381;-79
2022/06/04 04:50:26;;;;;;;15.13;7.57;;;;;;;9.55;100.00;101598.22;5008692;28;20127;-81
2022/06/04 04:52:52;;;;;;;17.27;8.90;;;;;;;9.57;100.00;101612.34;4974284;28;20479;-80
2022/06/04 04:55:18;;;;;;;10.32;5.55;;;;;;;9.49;100.00;101599.66;5014229;28;20380;-80
2022/06/04 04:57:44;;;;;;;17.13;8.93;;;;;;;9.36;100.00;101596.47;5009833;28;20529;-80
2022/06/04 05:00:11;;;;;;;14.95;7.80;;;;;;;9.37;100.00;101596.34;5014683;28;20021;-81
2022/06/04 05:02:37;;;;;;;13.98;7.47;;;;;;;9.38;100.00;101587.28;5012610;28;20467;-79
2022/06/04 05:05:03;;;;;;;12.98;7.70;;;;;;;9.67;100.00;101605.09;5016093;28;20044;-80
2022/06/04 05:07:29;;;;;;;13.48;7.47;;;;;;;10.06;100.00;101607.56;5003765;28;20040;-80
2022/06/04 05:09:55;;;;;;;16.88;9.18;;;;;;;10.57;100.00;101603.38;5002731;28;20034;-80
2022/06/04 05:12:20;;;;;;;16.08;8.02;;;;;;;11.07;100.00;101602.72;5018358;28;20041;-80
2022/06/04 05:14:46;;;;;;;14.35;7.30;;;;;;;11.49;100.00;101599.28;5019850;28;20081;-80
2022/06/04 05:17:11;;;;;;;13.05;7.32;;;;;;;11.95;97.57;101586.31;5009815;28;20029;-80
2022/06/04 05:19:37;;;;;;;18.65;8.80;;;;;;;12.21;95.24;101575.44;5018612;28;20051;-80
2022/06/04 05:22:03;;;;;;;10.23;6.82;;;;;;;12.38;92.31;101573.56;5018409;28;20794;-80
2022/06/04 05:24:34;;;;;;;13.95;7.55;;;;;;;12.56;92.06;101584.22;5020167;28;20120;-80
2022/06/04 05:27:02;;;;;;;16.05;8.50;;;;;;;12.29;93.24;101583.53;5023108;28;20555;-80
2022/06/04 05:29:31;;;;;;;15.98;8.00;;;;;;;12.95;89.90;101581.66;5023934;28;20063;-81
2022/06/04 05:32:02;;;;;;;11.02;6.50;;;;;;;13.49;86.25;101593.69;5009184;28;20036;-81
2022/06/04 05:34:45;;;;;;;;;;;;;;;;;;;;;
2022/06/04 05:37:16;;;;;;;13.65;7.05;;;;;;;13.41;85.72;101591.84;5012728;28;19917;-81
2022/06/04 05:39:46;;;;;;;12.98;7.30;;;;;;;13.54;84.77;101592.13;5010683;28;20038;-80
2022/06/04 05:42:12;;;;;;;11.60;7.05;;;;;;;12.85;88.05;101597.19;5026058;28;20078;-80
2022/06/04 05:44:37;;;;;;;11.73;6.40;;;;;;;12.16;92.17;101593.94;5021741;28;20455;-81
2022/06/04 05:47:04;;;;;;;11.05;6.18;;;;;;;11.94;94.90;101592.72;5003981;28;20045;-80
2022/06/04 05:49:30;;;;;;;11.05;6.70;;;;;;;13.06;89.94;101585.00;5057273;28;20025;-81
2022/06/04 05:51:56;;;;;;;14.60;7.03;;;;;;;13.96;84.63;101581.97;5026896;28;20029;-81
2022/06/04 05:54:22;;;;;;;13.00;7.63;;;;;;;14.52;82.42;101579.91;5009813;28;20487;-82
2022/06/04 05:56:49;;;;;;;12.15;7.63;;;;;;;15.13;77.46;101577.16;5004616;28;20029;-82
2022/06/04 05:59:17;;;;;;;7.60;4.70;;;;;;;15.55;76.40;101589.19;5032623;28;20074;-81
2022/06/04 06:01:44;;;;;;;13.13;9.93;;;;;;;15.74;71.56;101568.81;5050706;28;20041;-81
2022/06/04 06:04:12;;;;;;;15.93;6.88;;;;;;;16.06;72.54;101578.38;5006938;28;20092;-80
2022/06/04 06:06:40;;;;;;;10.48;6.72;;;;;;;16.29;70.91;101569.22;5053857;28;20021;-80
2022/06/04 06:09:10;;;;;;;12.98;6.20;;;;;;;16.37;69.00;101566.38;5025208;28;20127;-80
2022/06/04 06:11:41;;;;;;;15.15;6.47;;;;;;;16.54;69.19;101553.38;5012738;28;20021;-80
2022/06/04 06:14:08;;;;;;;9.35;7.05;;;;;;;16.81;66.74;101554.47;5060133;28;20059;-80
2022/06/04 06:16:35;;;;;;;17.20;7.32;;;;;;;16.98;66.58;101555.81;5009021;28;20388;-79
2022/06/04 06:19:01;;;;;;;5.75;4.78;;;;;;;17.22;65.14;101550.97;5010431;28;20498;-81
2022/06/04 06:21:29;;;;;;;12.90;6.82;;;;;;;17.29;64.22;101551.84;4993110;28;20033;-79
2022/06/04 06:23:56;;;;;;;10.88;6.22;;;;;;;17.28;64.44;101559.16;4993246;28;20124;-79
2022/06/04 06:26:24;;;;;;;9.18;6.80;;;;;;;17.51;62.50;101569.72;5021195;28;20454;-80
2022/06/04 06:28:49;;;;;;;11.57;5.90;;;;;;;17.55;63.81;101567.47;5009105;28;20387;-80
2022/06/04 06:31:18;;;;;;;15.90;7.25;;;;;;;17.62;62.62;101553.88;5024244;28;20029;-79
2022/06/04 06:33:44;;;;;;;11.55;6.32;;;;;;;17.97;61.32;101558.22;5016787;28;20030;-79
2022/06/04 06:36:12;;;;;;;11.50;7.38;;;;;;;18.37;61.17;101582.78;5028571;28;20048;-80
2022/06/04 06:38:38;;;;;;;10.10;5.30;;;;;;;18.60;58.88;101563.34;4994948;28;20038;-79
2022/06/04 06:41:55;;;;;;;8.93;6.05;;;;;;;18.38;58.76;101561.84;5027821;28;20113;-79
2022/06/04 06:45:08;;;;;;;;;;;;;;;18.19;60.67;101575.22;4963147;28;20042;-80
2022/06/04 06:47:34;;;;;;;13.68;7.40;;;;;;;18.09;60.26;101576.66;4982524;28;20074;-80
2022/06/04 06:50:02;;;;;;;11.32;6.53;;;;;;;16.43;65.66;101581.88;4985030;28;20372;-79
2022/06/04 06:52:28;;;;;;;14.13;7.20;;;;;;;15.47;70.87;101587.44;4994169;28;20437;-80
2022/06/04 06:55:01;;;;;;;10.77;6.63;;;;;;;16.31;68.06;101583.44;5006464;28;20029;-80
2022/06/04 06:57:27;;;;;;;11.10;6.28;;;;;;;15.14;72.09;101578.84;4994141;28;20037;-79
2022/06/04 06:59:54;;;;;;;11.65;7.60;;;;;;;14.65;75.72;101601.81;5011128;28;20034;-80
2022/06/04 07:02:19;;;;;;;12.75;8.73;;;;;;;16.35;71.69;101601.00;4995162;28;20041;-79
2022/06/04 07:04:45;;;;;;;11.98;5.95;;;;;;;15.98;70.04;101592.91;4987699;28;20037;-79
2022/06/04 07:07:11;;;;;;;9.73;6.68;;;;;;;17.77;64.96;101603.53;4992038;28;20068;-80
2022/06/04 07:09:39;;;;;;;11.32;5.88;;;;;;;19.08;59.16;101606.72;5022318;28;20087;-79
2022/06/04 07:12:07;;;;;;;6.57;5.82;;;;;;;19.55;56.77;101612.06;5007446;28;20125;-80
2022/06/04 07:14:32;;;;;;;10.48;6.70;;;;;;;19.43;56.99;101619.25;4989377;28;20033;-80
2022/06/04 07:16:59;;;;;;;10.73;7.40;;;;;;;17.65;61.15;101607.84;5025523;28;20033;-80
2022/06/04 07:19:25;;;;;;;16.67;7.47;;;;;;;16.66;64.55;101606.13;4990769;28;20041;-80
2022/06/04 07:21:52;;;;;;;9.82;6.65;;;;;;;16.00;68.52;101625.25;4994414;28;20136;-80
2022/06/04 07:24:18;;;;;;;10.35;7.13;;;;;;;15.51;72.13;101606.88;4993090;28;20041;-80
2022/06/04 07:26:44;;;;;;;12.80;7.45;;;;;;;15.24;72.33;101605.66;5016923;28;20057;-80
2022/06/04 07:29:10;;;;;;;15.48;9.10;;;;;;;15.70;71.23;101610.91;5007038;28;20025;-80
2022/06/04 07:31:36;;;;;;;13.50;9.43;;;;;;;16.20;69.04;101606.50;5020626;28;20128;-79
2022/06/04 07:34:03;;;;;;;11.93;7.28;;;;;;;18.52;61.40;101585.31;5023811;28;20045;-79
2022/06/04 07:36:37;;;;;;;10.50;6.93;;;;;;;19.86;55.26;101615.97;5022756;28;20072;-79
2022/06/04 07:39:09;;;;;;;8.88;5.75;;;;;;;19.85;55.94;101623.34;5044961;28;20042;-79
2022/06/04 07:41:38;;;;;;;13.27;8.38;;;;;;;21.29;51.32;101618.13;5023391;28;20029;-79
2022/06/04 07:44:05;;;;;;;11.73;5.90;;;;;;;21.71;50.06;101610.13;5054190;28;20116;-79
2022/06/04 07:46:31;;;;;;;13.63;7.13;;;;;;;;;;5025208;28;20025;-79
2022/06/04 07:49:00;;;;;;;13.57;7.60;;;;;;;20.39;51.73;101624.72;5004922;28;20040;-80
2022/06/04 07:51:27;;;;;;;9.77;6.30;;;;;;;18.82;57.18;101623.94;5019568;28;20025;-80
2022/06/04 07:53:53;;;;;;;9.25;6.28;;;;;;;18.08;58.84;101643.03;5021229;28;20037;-80
2022/06/04 07:56:19;;;;;;;10.80;7.47;;;;;;;17.38;62.50;101642.22;5023287;28;20119;-79
2022/06/04 07:58:46;;;;;;;10.07;6.15;;;;;;;17.16;63.49;101638.72;4992360;28;20487;-78
2022/06/04 08:01:14;;;;;;;12.85;7.72;;;;;;;17.64;63.19;101636.94;5017504;28;20026;-80
2022/06/04 08:03:41;;;;;;;10.55;7.55;;;;;;;17.91;62.42;101648.81;5005389;28;20442;-79
2022/06/04 08:06:07;;;;;;;8.65;6.65;;;;;;;20.33;54.32;101643.91;5022173;28;20041;-80
2022/06/04 08:08:34;;;;;;;11.20;7.30;;;;;;;22.58;48.61;101640.75;5018700;28;20033;-79
2022/06/04 08:11:01;;;;;;;10.13;6.47;;;;;;;24.95;44.41;101639.19;5004044;28;20068;-79
2022/06/04 08:13:30;;;;;;;11.73;7.05;;;;;;;26.14;40.16;101624.06;5016171;28;20021;-81
2022/06/04 08:16:03;;;;;;;12.30;7.15;;;;;;;26.51;36.75;101624.19;5048986;28;20349;-80
2022/06/04 08:18:29;;;;;;;8.98;5.72;;;;;;;25.14;39.12;101628.75;5025559;28;20033;-79
2022/06/04 08:20:55;;;;;;;9.63;6.72;;;;;;;24.03;40.90;101624.63;5023544;28;20040;-79
2022/06/04 08:23:20;;;;;;;10.70;6.00;;;;;;;22.94;43.63;101625.22;5023930;28;20041;-79
2022/06/04 08:25:48;;;;;;;8.85;6.45;;;;;;;23.90;43.68;101631.25;5007724;28;20052;-79
2022/06/04 08:28:17;;;;;;;9.43;6.80;;;;;;;24.31;41.27;101622.94;5016488;28;20083;-79
2022/06/04 08:30:58;;;;;;;10.10;7.05;;;;;;;25.12;40.61;101625.44;5021649;28;20036;-79
2022/06/04 08:33:26;;;;;;;8.98;6.65;;;;;;;25.68;36.53;101609.72;5006255;28;20038;-78
2022/06/04 08:35:52;;;;;;;9.30;7.10;;;;;;;25.06;37.58;101615.44;4992306;28;20097;-79
2022/06/04 08:38:18;;;;;;;8.05;6.57;;;;;;;24.92;38.82;101607.53;5015613;28;20030;-79
2022/06/04 08:40:48;;;;;;;9.85;5.88;;;;;;;24.60;38.36;101610.03;4994056;28;20029;-80
2022/06/04 08:43:40;;;;;;;8.13;7.00;;;;;;;23.99;39.53;101619.88;5025502;28;20041;-78
2022/06/04 08:46:16;;;;;;;13.32;7.35;;;;;;;24.10;40.42;101619.81;5009755;28;20057;-79
2022/06/04 08:48:43;;;;;;;8.95;6.32;;;;;;;24.50;39.41;101626.34;5024139;28;20025;-79
2022/06/04 08:51:28;;;;;;;8.25;6.85;;;;;;;24.98;39.12;101617.53;5013531;28;20421;-79
2022/06/04 08:57:32;;;;;;;8.60;6.03;;;;;;;25.01;37.85;101621.72;5031082;28;20475;-79
2022/06/04 08:59:52;;;;;;;11.18;6.63;;;;;;;24.31;39.56;101617.44;5023747;28;20388;-78
2022/06/04 09:02:21;;;;;;;11.35;6.85;;;;;;;24.33;39.91;101593.31;5023177;28;20036;-78
2022/06/04 09:04:50;;;;;;;8.88;6.57;;;;;;;24.73;39.70;101611.63;5027169;28;20356;-79
2022/06/04 09:07:20;;;;;;;9.65;7.13;;;;;;;24.43;38.43;101598.16;5007870;28;20506;-79
2022/06/04 09:10:08;;;;;;;10.48;7.07;;;;;;;24.19;40.43;101617.53;5007560;28;20033;-79
2022/06/04 09:12:44;;;;;;;8.52;5.55;;;;;;;24.52;39.24;101607.69;5031528;28;20029;-84
2022/06/04 09:15:19;;;;;;;10.90;6.72;;;;;;;24.82;38.57;101610.09;5014387;28;20052;-82
2022/06/04 09:17:51;;;;;;;9.10;6.68;;;;;;;24.72;38.48;101607.22;5031679;28;20041;-82
2022/06/04 09:20:18;;;;;;;8.45;6.93;;;;;;;24.84;38.84;101616.19;4996602;28;20494;-82
2022/06/04 09:22:47;;;;;;;9.38;6.85;;;;;;;25.23;38.70;101619.03;5027085;28;20057;-83
2022/06/04 09:25:17;;;;;;;10.57;6.60;;;;;;;25.76;37.84;101614.78;5014523;28;20045;-83
2022/06/04 09:28:02;;;;;;;8.82;6.85;;;;;;;25.84;37.30;101614.34;5014867;28;20475;-83
2022/06/04 09:30:35;;;;;;;7.68;6.10;;;;;;;26.51;36.42;101620.56;5028074;28;20177;-83
2022/06/04 09:33:28;;;;;;;8.93;5.68;;;;;;;26.52;36.15;101620.34;5014428;28;20033;-82
2022/06/04 09:35:55;;;;;;;8.55;6.30;;;;;;;26.83;36.05;101604.03;5015641;28;20508;-83
2022/06/04 09:38:28;;;;;;;8.85;5.57;;;;;;;27.07;34.20;101615.56;5013137;28;20033;-82
2022/06/04 09:41:03;;;;;;;5.72;5.13;;;;;;;27.40;34.74;101610.78;4998134;28;20033;-81
2022/06/04 09:43:29;;;;;;;8.15;5.85;;;;;;;27.69;33.77;101615.91;5013520;28;21488;-81
2022/06/04 09:46:00;;;;;;;9.45;6.65;;;;;;;27.59;34.02;101611.97;5013317;28;20084;-81
2022/06/04 09:48:31;;;;;;;9.95;5.80;;;;;;;27.90;32.35;101594.75;4999449;28;20471;-84
2022/06/04 09:51:00;;;;;;;7.60;6.38;;;;;;;27.29;34.14;101604.38;5031043;28;20065;-82
2022/06/04 09:53:29;;;;;;;7.60;5.32;;;;;;;27.32;34.52;101595.56;4996910;28;20075;-84
2022/06/04 09:55:59;;;;;;;6.97;5.93;;;;;;;27.29;33.14;101596.09;5014287;28;20025;-83
2022/06/04 09:58:30;;;;;;;7.50;5.82;;;;;;;26.94;34.29;101603.03;5030277;28;20033;-82
2022/06/04 10:01:05;;;;;;;8.80;6.22;;;;;;;26.54;34.23;101617.31;5028556;28;20037;-83
2022/06/04 10:03:36;;;;;;;9.75;5.53;;;;;;;26.03;35.18;101605.75;4999701;28;20098;-82
2022/06/04 10:06:11;;;;;;;9.05;6.47;;;;;;;25.63;36.63;101588.44;5029407;28;20072;-82
2022/06/04 10:11:53;;;;;;;8.85;5.22;;;;;;;25.94;35.97;101590.78;4995747;28;20065;-82
2022/06/04 10:14:38;;;;;;;9.63;5.18;;;;;;;26.40;35.60;101607.78;4977552;28;20036;-83
2022/06/04 10:17:35;;;;;;;9.05;7.45;;;;;;;26.72;34.96;101594.84;4999471;28;20045;-83
2022/06/04 10:20:00;;;;;;;8.30;6.25;;;;;;;27.31;34.60;101598.59;5027712;28;20041;-84
2022/06/04 10:22:26;;;;;;;6.82;6.13;;;;;;;27.45;33.77;101593.44;5012178;28;20079;-82
2022/06/04 10:24:58;;;;;;;10.80;6.03;;;;;;;27.37;32.83;101598.34;5014232;28;20033;-83
2022/06/04 10:27:31;;;;;;;7.28;6.18;;;;;;;27.21;33.10;101610.41;5030075;28;20507;-83
2022/06/04 10:30:15;;;;;;;;;;;;;;;26.80;34.33;101599.06;5032140;28;20034;-83
2022/06/04 10:33:12;;;;;;;9.25;6.47;;;;;;;26.78;33.28;101581.94;5014369;28;19913;-82
2022/06/04 10:35:49;;;;;;;8.93;5.80;;;;;;;25.84;34.67;101567.53;5011182;28;20438;-82
2022/06/04 10:38:39;;;;;;;6.03;4.90;;;;;;;25.80;36.23;101602.19;5022461;28;20125;-81
2022/06/04 10:41:23;;;;;;;5.13;4.32;;;;;;;25.87;36.33;101599.25;4998566;28;20029;-82
2022/06/04 10:44:27;;;;;;;6.57;5.13;;;;;;;26.43;36.02;101598.97;5025027;28;20483;-82
2022/06/04 10:47:21;;;;;;;8.65;4.90;;;;;;;26.95;34.74;101590.06;5029757;28;20541;-82
2022/06/04 10:50:01;;;;;;;7.30;5.63;;;;;;;26.49;35.07;101609.00;4991966;28;20790;-79
2022/06/04 10:52:55;;;;;;;9.00;5.10;;;;;;;26.93;33.77;101603.28;5010136;28;20148;-81
2022/06/04 10:55:39;;;;;;;7.15;6.13;;;;;;;27.07;33.28;101604.50;5010820;28;20025;-81
2022/06/04 10:58:19;;;;;;;5.78;4.00;;;;;;;25.43;36.34;101590.94;5014226;28;20471;-82
2022/06/04 11:00:58;;;;;;;7.65;5.25;;;;;;;25.87;36.59;101600.06;5028297;28;20044;-82
2022/06/04 11:03:38;;;;;;;8.23;6.32;;;;;;;25.06;36.36;101607.16;5028342;28;20030;-81
2022/06/04 11:06:08;;;;;;;6.47;4.38;;;;;;;23.27;40.44;101596.38;5031018;28;20029;-80
2022/06/04 11:08:41;;;;;;;8.45;5.45;;;;;;;21.89;43.61;101592.84;5021227;28;20037;-81
2022/06/04 11:11:19;;;;;;;8.10;5.35;;;;;;;22.83;42.70;101607.66;5009406;28;20459;-78
2022/06/04 11:13:52;;;;;;;6.25;5.18;;;;;;;24.68;37.37;101584.88;5022808;28;20040;-80
2022/06/04 11:16:42;;;;;;;15.40;5.10;;;;;;;26.08;36.40;101595.63;5041757;28;20037;-78
2022/06/04 11:19:43;;;;;;;8.52;5.35;;;;;;;26.74;33.84;101600.94;5009847;28;20072;-78
2022/06/04 11:22:16;;;;;;;6.97;6.30;;;;;;;26.40;35.40;101605.03;5027865;28;20504;-77
2022/06/04 11:24:48;;;;;;;8.25;5.55;;;;;;;26.91;32.60;101570.47;4991072;28;20063;-78
2022/06/04 11:27:25;;;;;;;7.85;5.35;;;;;;;27.34;34.05;101606.34;5008242;28;20714;-79
2022/06/04 11:29:54;;;;;;;8.18;5.15;;;;;;;27.93;32.97;101605.25;5023556;28;20029;-79
2022/06/04 11:32:29;;;;;;;6.70;6.10;;;;;;;28.08;33.15;101605.28;5022658;28;20124;-81
2022/06/04 11:35:04;;;;;;;8.93;6.53;;;;;;;27.10;31.41;101598.44;5023208;28;20249;-81
2022/06/04 11:37:58;;;;;;;7.45;6.32;;;;;;;26.91;34.10;101608.22;5016822;28;20376;-82
2022/06/04 11:40:37;;;;;;;9.15;6.95;;;;;;;26.77;33.35;101596.81;5020612;28;20045;-82
2022/06/04 11:43:29;;;;;;;7.25;6.55;;;;;;;26.81;34.07;101588.88;5020628;28;20037;-82
2022/06/04 11:46:20;;;;;;;7.68;5.63;;;;;;;27.77;34.18;101602.41;5028508;28;20029;-80
2022/06/04 11:48:57;;;;;;;5.50;5.00;;;;;;;28.63;31.72;101587.13;5025561;28;20148;-80
2022/06/04 11:51:48;;;;;;;6.90;5.80;;;;;;;29.30;31.04;101596.16;5006678;28;20116;-79
2022/06/04 11:54:44;;;;;;;6.07;5.47;;;;;;;29.91;30.12;101589.56;5006099;28;20033;-81
2022/06/04 11:57:38;;;;;;;5.53;4.95;;;;;;;30.35;29.16;101582.34;5028102;28;20030;-81